sensor_id;sensor_type;location;lat;lon;timestamp;temperature;humidity
75262;DHT22;63859;51.064;4.580;2023-01-16T00:02:05;4.70;99.90
75262;DHT22;63859;51.064;4.580;2023-01-16T00:04:31;4.70;99.90
75262;DHT22;63859;51.064;4.580;2023-01-16T00:06:59;4.70;99.90
75262;DHT22;63859;51.064;4.580;2023-01-16T00:09:25;4.70;99.90
75262;DHT22;63859;51.064;4.580;2023-01-16T00:11:50;4.70;99.90
75262;DHT22;63859;51.064;4.580;2023-01-16T00:14:16;4.70;99.90
75262;DHT22;63859;51.064;4.580;2023-01-16T00:16:41;4.70;99.90
75262;DHT22;63859;51.064;4.580;2023-01-16T00:19:07;4.80;99.90
75262;DHT22;63859;51.064;4.580;2023-01-16T00:21:33;4.60;99.90
75262;DHT22;63859;51.064;4.580;2023-01-16T00:23:58;4.60;99.90
75262;DHT22;63859;51.064;4.580;2023-01-16T00:26:26;4.60;99.90
75262;DHT22;63859;51.064;4.580;2023-01-16T00:28:51;4.60;99.90
75262;DHT22;63859;51.064;4.580;2023-01-16T00:31:17;4.60;99.90
75262;DHT22;63859;51.064;4.580;2023-01-16T00:33:43;4.60;99.90
75262;DHT22;63859;51.064;4.580;2023-01-16T00:36:10;4.60;99.90
75262;DHT22;63859;51.064;4.580;2023-01-16T00:38:36;4.70;99.90
75262;DHT22;63859;51.064;4.580;2023-01-16T00:41:02;4.60;99.90
75262;DHT22;63859;51.064;4.580;2023-01-16T00:43:27;4.60;99.90
75262;DHT22;63859;51.064;4.580;2023-01-16T00:45:53;4.60;99.90
75262;DHT22;63859;51.064;4.580;2023-01-16T00:48:19;4.60;99.90
75262;DHT22;63859;51.064;4.580;2023-01-16T00:50:44;4.60;99.90
75262;DHT22;63859;51.064;4.580;2023-01-16T00:53:10;4.50;99.90
75262;DHT22;63859;51.064;4.580;2023-01-16T00:55:36;4.50;99.90
75262;DHT22;63859;51.064;4.580;2023-01-16T00:58:04;4.50;99.90
75262;DHT22;63859;51.064;4.580;2023-01-16T01:00:30;4.40;99.90
75262;DHT22;63859;51.064;4.580;2023-01-16T01:02:56;4.50;99.90
75262;DHT22;63859;51.064;4.580;2023-01-16T01:05:22;4.60;99.90
75262;DHT22;63859;51.064;4.580;2023-01-16T01:07:47;4.50;99.90
75262;DHT22;63859;51.064;4.580;2023-01-16T01:10:13;4.70;99.90
75262;DHT22;63859;51.064;4.580;2023-01-16T01:12:38;4.40;99.90
75262;DHT22;63859;51.064;4.580;2023-01-16T01:15:05;4.40;99.90
75262;DHT22;63859;51.064;4.580;2023-01-16T01:17:31;4.40;99.90
75262;DHT22;63859;51.064;4.580;2023-01-16T01:19:56;4.40;99.90
75262;DHT22;63859;51.064;4.580;2023-01-16T01:22:22;4.40;99.90
75262;DHT22;63859;51.064;4.580;2023-01-16T01:24:48;4.30;99.90
75262;DHT22;63859;51.064;4.580;2023-01-16T01:27:15;4.40;99.90
75262;DHT22;63859;51.064;4.580;2023-01-16T01:29:42;4.40;99.90
75262;DHT22;63859;51.064;4.580;2023-01-16T01:32:07;4.40;99.90
75262;DHT22;63859;51.064;4.580;2023-01-16T01:34:33;4.40;99.90
75262;DHT22;63859;51.064;4.580;2023-01-16T01:37:04;4.40;99.90
75262;DHT22;63859;51.064;4.580;2023-01-16T01:39:30;4.40;99.90
75262;DHT22;63859;51.064;4.580;2023-01-16T01:41:57;4.40;99.90
75262;DHT22;63859;51.064;4.580;2023-01-16T01:44:54;4.40;99.90
75262;DHT22;63859;51.064;4.580;2023-01-16T01:47:34;4.30;99.90
75262;DHT22;63859;51.064;4.580;2023-01-16T01:50:10;4.40;99.90
75262;DHT22;63859;51.064;4.580;2023-01-16T01:52:37;4.40;99.90
75262;DHT22;63859;51.064;4.580;2023-01-16T01:55:07;4.40;99.90
75262;DHT22;63859;51.064;4.580;2023-01-16T01:57:40;4.40;99.90
75262;DHT22;63859;51.064;4.580;2023-01-16T02:00:12;4.40;99.90
75262;DHT22;63859;51.064;4.580;2023-01-16T02:02:45;4.40;99.90
75262;DHT22;63859;51.064;4.580;2023-01-16T02:05:14;4.40;99.90
75262;DHT22;63859;51.064;4.580;2023-01-16T02:07:41;4.40;99.90
75262;DHT22;63859;51.064;4.580;2023-01-16T02:10:21;4.40;99.90
75262;DHT22;63859;51.064;4.580;2023-01-16T02:12:50;4.40;99.90
75262;DHT22;63859;51.064;4.580;2023-01-16T02:15:15;4.40;99.90
75262;DHT22;63859;51.064;4.580;2023-01-16T02:17:44;4.40;99.90
75262;DHT22;63859;51.064;4.580;2023-01-16T02:20:31;4.30;99.90
75262;DHT22;63859;51.064;4.580;2023-01-16T02:31:28;4.40;99.90
75262;DHT22;63859;51.064;4.580;2023-01-16T02:42:03;4.40;99.90
75262;DHT22;63859;51.064;4.580;2023-01-16T02:50:11;4.40;99.90
75262;DHT22;63859;51.064;4.580;2023-01-16T02:55:35;4.50;99.90
75262;DHT22;63859;51.064;4.580;2023-01-16T02:58:04;4.50;99.90
75262;DHT22;63859;51.064;4.580;2023-01-16T03:00:31;4.50;99.90
75262;DHT22;63859;51.064;4.580;2023-01-16T03:02:58;4.50;99.90
75262;DHT22;63859;51.064;4.580;2023-01-16T03:05:25;4.60;99.90
75262;DHT22;63859;51.064;4.580;2023-01-16T03:08:37;4.60;99.90
75262;DHT22;63859;51.064;4.580;2023-01-16T03:11:18;4.60;99.90
75262;DHT22;63859;51.064;4.580;2023-01-16T03:16:50;4.70;99.90
75262;DHT22;63859;51.064;4.580;2023-01-16T03:19:54;4.70;99.90
75262;DHT22;63859;51.064;4.580;2023-01-16T03:22:17;4.80;99.90
75262;DHT22;63859;51.064;4.580;2023-01-16T03:24:57;4.90;99.90
75262;DHT22;63859;51.064;4.580;2023-01-16T03:28:46;4.90;99.90
75262;DHT22;63859;51.064;4.580;2023-01-16T03:30:47;5.00;99.90
75262;DHT22;63859;51.064;4.580;2023-01-16T03:33:49;5.00;99.90
75262;DHT22;63859;51.064;4.580;2023-01-16T03:37:11;5.00;99.90
75262;DHT22;63859;51.064;4.580;2023-01-16T03:39:18;5.00;99.90
75262;DHT22;63859;51.064;4.580;2023-01-16T03:41:47;5.20;99.90
75262;DHT22;63859;51.064;4.580;2023-01-16T03:44:22;5.10;99.90
75262;DHT22;63859;51.064;4.580;2023-01-16T03:46:54;5.20;99.90
75262;DHT22;63859;51.064;4.580;2023-01-16T03:49:26;5.20;99.90
75262;DHT22;63859;51.064;4.580;2023-01-16T03:51:56;5.10;99.90
75262;DHT22;63859;51.064;4.580;2023-01-16T03:54:41;5.20;99.90
75262;DHT22;63859;51.064;4.580;2023-01-16T03:57:29;5.20;99.90
75262;DHT22;63859;51.064;4.580;2023-01-16T03:59:55;5.20;99.90
75262;DHT22;63859;51.064;4.580;2023-01-16T04:02:29;5.20;99.90
75262;DHT22;63859;51.064;4.580;2023-01-16T04:05:18;5.30;99.90
75262;DHT22;63859;51.064;4.580;2023-01-16T04:07:52;5.30;99.90
75262;DHT22;63859;51.064;4.580;2023-01-16T04:10:22;5.30;99.90
75262;DHT22;63859;51.064;4.580;2023-01-16T04:12:54;5.30;99.90
75262;DHT22;63859;51.064;4.580;2023-01-16T04:15:23;5.30;99.90
75262;DHT22;63859;51.064;4.580;2023-01-16T04:17:49;5.30;99.90
75262;DHT22;63859;51.064;4.580;2023-01-16T04:20:15;5.30;99.90
75262;DHT22;63859;51.064;4.580;2023-01-16T04:22:41;5.30;99.90
75262;DHT22;63859;51.064;4.580;2023-01-16T04:25:11;5.30;99.90
75262;DHT22;63859;51.064;4.580;2023-01-16T04:27:37;5.30;99.90
75262;DHT22;63859;51.064;4.580;2023-01-16T04:30:03;5.40;99.90
75262;DHT22;63859;51.064;4.580;2023-01-16T04:32:29;5.40;99.90
75262;DHT22;63859;51.064;4.580;2023-01-16T04:34:54;5.40;99.90
75262;DHT22;63859;51.064;4.580;2023-01-16T04:37:20;5.40;99.90
75262;DHT22;63859;51.064;4.580;2023-01-16T04:39:46;5.40;99.90
75262;DHT22;63859;51.064;4.580;2023-01-16T04:42:13;5.40;99.90
75262;DHT22;63859;51.064;4.580;2023-01-16T04:44:38;5.50;99.90
75262;DHT22;63859;51.064;4.580;2023-01-16T04:47:04;5.50;99.90
75262;DHT22;63859;51.064;4.580;2023-01-16T04:49:30;5.50;99.90
75262;DHT22;63859;51.064;4.580;2023-01-16T04:51:55;5.50;99.90
75262;DHT22;63859;51.064;4.580;2023-01-16T04:54:21;5.50;99.90
75262;DHT22;63859;51.064;4.580;2023-01-16T04:56:47;5.50;99.90
75262;DHT22;63859;51.064;4.580;2023-01-16T04:59:13;5.40;99.90
75262;DHT22;63859;51.064;4.580;2023-01-16T05:01:39;5.40;99.90
75262;DHT22;63859;51.064;4.580;2023-01-16T05:04:06;5.60;99.90
75262;DHT22;63859;51.064;4.580;2023-01-16T05:06:33;5.50;99.90
75262;DHT22;63859;51.064;4.580;2023-01-16T05:08:59;5.60;99.90
75262;DHT22;63859;51.064;4.580;2023-01-16T05:11:25;5.50;99.90
75262;DHT22;63859;51.064;4.580;2023-01-16T05:13:50;5.50;99.90
75262;DHT22;63859;51.064;4.580;2023-01-16T05:16:16;5.40;99.90
75262;DHT22;63859;51.064;4.580;2023-01-16T05:18:42;5.50;99.90
75262;DHT22;63859;51.064;4.580;2023-01-16T05:21:08;5.50;99.90
75262;DHT22;63859;51.064;4.580;2023-01-16T05:23:33;5.50;99.90
75262;DHT22;63859;51.064;4.580;2023-01-16T05:26:00;5.60;99.90
75262;DHT22;63859;51.064;4.580;2023-01-16T05:28:26;5.50;99.90
75262;DHT22;63859;51.064;4.580;2023-01-16T05:30:52;5.50;99.90
75262;DHT22;63859;51.064;4.580;2023-01-16T05:33:18;5.40;99.90
75262;DHT22;63859;51.064;4.580;2023-01-16T05:35:47;5.50;99.90
75262;DHT22;63859;51.064;4.580;2023-01-16T05:38:14;5.50;99.90
75262;DHT22;63859;51.064;4.580;2023-01-16T05:40:39;5.50;99.90
75262;DHT22;63859;51.064;4.580;2023-01-16T05:43:05;5.40;99.90
75262;DHT22;63859;51.064;4.580;2023-01-16T05:45:31;5.40;99.90
75262;DHT22;63859;51.064;4.580;2023-01-16T05:47:57;5.40;99.90
75262;DHT22;63859;51.064;4.580;2023-01-16T05:50:23;5.40;99.90
75262;DHT22;63859;51.064;4.580;2023-01-16T05:52:49;5.40;99.90
75262;DHT22;63859;51.064;4.580;2023-01-16T05:55:14;5.40;99.90
75262;DHT22;63859;51.064;4.580;2023-01-16T05:57:40;5.50;99.90
75262;DHT22;63859;51.064;4.580;2023-01-16T06:00:06;5.40;99.90
75262;DHT22;63859;51.064;4.580;2023-01-16T06:02:32;5.40;99.90
75262;DHT22;63859;51.064;4.580;2023-01-16T06:04:58;5.50;99.90
75262;DHT22;63859;51.064;4.580;2023-01-16T06:07:23;5.40;99.90
75262;DHT22;63859;51.064;4.580;2023-01-16T06:09:49;5.40;99.90
75262;DHT22;63859;51.064;4.580;2023-01-16T06:12:16;5.40;99.90
75262;DHT22;63859;51.064;4.580;2023-01-16T06:14:42;5.40;99.90
75262;DHT22;63859;51.064;4.580;2023-01-16T06:17:09;5.40;99.90
75262;DHT22;63859;51.064;4.580;2023-01-16T06:19:34;5.40;99.90
75262;DHT22;63859;51.064;4.580;2023-01-16T06:22:00;5.60;99.90
75262;DHT22;63859;51.064;4.580;2023-01-16T06:24:25;5.40;99.90
75262;DHT22;63859;51.064;4.580;2023-01-16T06:26:51;5.40;99.90
75262;DHT22;63859;51.064;4.580;2023-01-16T06:29:17;5.40;99.90
75262;DHT22;63859;51.064;4.580;2023-01-16T06:31:42;5.40;99.90
75262;DHT22;63859;51.064;4.580;2023-01-16T06:34:08;5.60;99.90
75262;DHT22;63859;51.064;4.580;2023-01-16T06:36:34;5.40;99.90
75262;DHT22;63859;51.064;4.580;2023-01-16T06:39:00;5.40;99.90
75262;DHT22;63859;51.064;4.580;2023-01-16T06:41:25;5.30;99.90
75262;DHT22;63859;51.064;4.580;2023-01-16T06:43:51;5.40;99.90
75262;DHT22;63859;51.064;4.580;2023-01-16T06:46:16;5.40;99.90
75262;DHT22;63859;51.064;4.580;2023-01-16T06:48:42;5.40;99.90
75262;DHT22;63859;51.064;4.580;2023-01-16T06:51:09;5.40;99.90
75262;DHT22;63859;51.064;4.580;2023-01-16T06:53:35;5.40;99.90
75262;DHT22;63859;51.064;4.580;2023-01-16T06:56:01;5.30;99.90
75262;DHT22;63859;51.064;4.580;2023-01-16T06:58:26;5.20;99.90
75262;DHT22;63859;51.064;4.580;2023-01-16T07:00:52;5.30;99.90
75262;DHT22;63859;51.064;4.580;2023-01-16T07:03:18;5.30;99.90
75262;DHT22;63859;51.064;4.580;2023-01-16T07:05:45;5.30;99.90
75262;DHT22;63859;51.064;4.580;2023-01-16T07:08:11;5.30;99.90
75262;DHT22;63859;51.064;4.580;2023-01-16T07:10:37;5.30;99.90
75262;DHT22;63859;51.064;4.580;2023-01-16T07:13:03;5.40;99.90
75262;DHT22;63859;51.064;4.580;2023-01-16T07:15:28;5.30;99.90
75262;DHT22;63859;51.064;4.580;2023-01-16T07:18:14;5.30;99.90
75262;DHT22;63859;51.064;4.580;2023-01-16T07:21:01;5.30;99.90
75262;DHT22;63859;51.064;4.580;2023-01-16T07:23:53;5.30;99.90
75262;DHT22;63859;51.064;4.580;2023-01-16T07:26:20;5.20;99.90
75262;DHT22;63859;51.064;4.580;2023-01-16T07:28:49;5.20;99.90
75262;DHT22;63859;51.064;4.580;2023-01-16T07:31:16;5.20;99.90
75262;DHT22;63859;51.064;4.580;2023-01-16T07:33:42;5.20;99.90
75262;DHT22;63859;51.064;4.580;2023-01-16T07:36:08;5.20;99.90
75262;DHT22;63859;51.064;4.580;2023-01-16T07:38:34;5.20;99.90
75262;DHT22;63859;51.064;4.580;2023-01-16T07:40:59;5.10;99.90
75262;DHT22;63859;51.064;4.580;2023-01-16T07:43:25;5.20;99.90
75262;DHT22;63859;51.064;4.580;2023-01-16T07:45:50;5.20;99.90
75262;DHT22;63859;51.064;4.580;2023-01-16T07:48:23;5.20;99.90
75262;DHT22;63859;51.064;4.580;2023-01-16T07:50:56;5.10;99.90
75262;DHT22;63859;51.064;4.580;2023-01-16T07:53:23;5.10;99.90
75262;DHT22;63859;51.064;4.580;2023-01-16T07:55:51;5.10;99.90
75262;DHT22;63859;51.064;4.580;2023-01-16T07:58:17;5.10;99.90
75262;DHT22;63859;51.064;4.580;2023-01-16T08:00:43;5.10;99.90
75262;DHT22;63859;51.064;4.580;2023-01-16T08:03:09;5.10;99.90
75262;DHT22;63859;51.064;4.580;2023-01-16T08:05:35;5.00;99.90
75262;DHT22;63859;51.064;4.580;2023-01-16T08:08:00;5.00;99.90
75262;DHT22;63859;51.064;4.580;2023-01-16T08:10:26;5.10;99.90
75262;DHT22;63859;51.064;4.580;2023-01-16T08:12:51;4.90;99.90
75262;DHT22;63859;51.064;4.580;2023-01-16T08:15:17;5.00;99.90
75262;DHT22;63859;51.064;4.580;2023-01-16T08:17:42;5.00;99.90
75262;DHT22;63859;51.064;4.580;2023-01-16T08:20:09;5.00;99.90
75262;DHT22;63859;51.064;4.580;2023-01-16T08:22:35;5.00;99.90
75262;DHT22;63859;51.064;4.580;2023-01-16T08:25:06;5.00;99.90
75262;DHT22;63859;51.064;4.580;2023-01-16T08:27:32;5.00;99.90
75262;DHT22;63859;51.064;4.580;2023-01-16T08:29:57;5.00;99.90
75262;DHT22;63859;51.064;4.580;2023-01-16T08:32:23;5.00;99.90
75262;DHT22;63859;51.064;4.580;2023-01-16T08:34:49;5.00;99.90
75262;DHT22;63859;51.064;4.580;2023-01-16T08:37:14;5.00;99.90
75262;DHT22;63859;51.064;4.580;2023-01-16T08:39:40;5.00;99.90
75262;DHT22;63859;51.064;4.580;2023-01-16T08:42:06;5.00;99.90
75262;DHT22;63859;51.064;4.580;2023-01-16T08:44:50;5.10;99.90
75262;DHT22;63859;51.064;4.580;2023-01-16T08:47:34;5.00;99.90
75262;DHT22;63859;51.064;4.580;2023-01-16T08:50:19;5.10;99.90
75262;DHT22;63859;51.064;4.580;2023-01-16T08:53:04;5.10;99.90
75262;DHT22;63859;51.064;4.580;2023-01-16T08:55:30;5.10;99.90
75262;DHT22;63859;51.064;4.580;2023-01-16T08:57:56;5.10;99.90
75262;DHT22;63859;51.064;4.580;2023-01-16T09:00:28;5.10;99.90
75262;DHT22;63859;51.064;4.580;2023-01-16T09:02:55;5.10;99.90
75262;DHT22;63859;51.064;4.580;2023-01-16T09:05:22;5.20;99.90
75262;DHT22;63859;51.064;4.580;2023-01-16T09:07:48;5.30;99.90
75262;DHT22;63859;51.064;4.580;2023-01-16T09:10:14;5.30;99.90
75262;DHT22;63859;51.064;4.580;2023-01-16T09:12:40;5.30;99.90
75262;DHT22;63859;51.064;4.580;2023-01-16T09:15:24;5.30;99.90
75262;DHT22;63859;51.064;4.580;2023-01-16T09:17:50;5.40;99.90
75262;DHT22;63859;51.064;4.580;2023-01-16T09:20:16;5.40;99.90
75262;DHT22;63859;51.064;4.580;2023-01-16T09:22:41;5.40;99.90
75262;DHT22;63859;51.064;4.580;2023-01-16T09:25:08;5.40;99.90
75262;DHT22;63859;51.064;4.580;2023-01-16T09:27:34;5.40;99.90
75262;DHT22;63859;51.064;4.580;2023-01-16T09:29:59;5.40;99.90
75262;DHT22;63859;51.064;4.580;2023-01-16T09:32:25;5.40;99.90
75262;DHT22;63859;51.064;4.580;2023-01-16T09:34:51;5.40;99.90
75262;DHT22;63859;51.064;4.580;2023-01-16T09:37:16;5.40;99.90
75262;DHT22;63859;51.064;4.580;2023-01-16T09:39:42;5.40;99.90
75262;DHT22;63859;51.064;4.580;2023-01-16T09:42:29;5.40;99.90
75262;DHT22;63859;51.064;4.580;2023-01-16T09:45:30;5.40;99.90
75262;DHT22;63859;51.064;4.580;2023-01-16T09:48:04;5.40;99.90
75262;DHT22;63859;51.064;4.580;2023-01-16T09:50:48;5.30;99.90
75262;DHT22;63859;51.064;4.580;2023-01-16T09:53:45;5.40;99.90
75262;DHT22;63859;51.064;4.580;2023-01-16T09:56:38;5.30;99.90
75262;DHT22;63859;51.064;4.580;2023-01-16T09:59:32;5.30;99.90
75262;DHT22;63859;51.064;4.580;2023-01-16T10:04:33;5.40;99.90
75262;DHT22;63859;51.064;4.580;2023-01-16T10:10:14;5.40;99.90
75262;DHT22;63859;51.064;4.580;2023-01-16T10:14:06;5.40;99.90
75262;DHT22;63859;51.064;4.580;2023-01-16T10:18:56;5.60;99.90
75262;DHT22;63859;51.064;4.580;2023-01-16T10:22:06;5.60;99.90
75262;DHT22;63859;51.064;4.580;2023-01-16T10:27:17;5.80;99.90
75262;DHT22;63859;51.064;4.580;2023-01-16T10:29:45;5.80;99.90
75262;DHT22;63859;51.064;4.580;2023-01-16T10:32:19;5.90;99.90
75262;DHT22;63859;51.064;4.580;2023-01-16T10:37:45;6.00;99.90
75262;DHT22;63859;51.064;4.580;2023-01-16T10:40:21;5.90;99.90
75262;DHT22;63859;51.064;4.580;2023-01-16T10:42:58;6.00;99.90
75262;DHT22;63859;51.064;4.580;2023-01-16T10:45:44;6.00;99.90
75262;DHT22;63859;51.064;4.580;2023-01-16T10:48:48;6.10;99.90
75262;DHT22;63859;51.064;4.580;2023-01-16T10:51:32;6.10;99.90
75262;DHT22;63859;51.064;4.580;2023-01-16T10:53:59;6.20;99.90
75262;DHT22;63859;51.064;4.580;2023-01-16T10:56:25;6.20;99.90
75262;DHT22;63859;51.064;4.580;2023-01-16T10:58:51;6.20;99.90
75262;DHT22;63859;51.064;4.580;2023-01-16T11:01:18;6.20;99.90
75262;DHT22;63859;51.064;4.580;2023-01-16T11:03:53;6.20;99.90
75262;DHT22;63859;51.064;4.580;2023-01-16T11:06:27;6.20;99.90
75262;DHT22;63859;51.064;4.580;2023-01-16T11:09:03;6.20;99.90
75262;DHT22;63859;51.064;4.580;2023-01-16T11:11:30;6.10;99.90
75262;DHT22;63859;51.064;4.580;2023-01-16T11:14:31;6.10;99.90
75262;DHT22;63859;51.064;4.580;2023-01-16T11:17:34;6.10;99.90
75262;DHT22;63859;51.064;4.580;2023-01-16T11:20:31;6.00;99.90
75262;DHT22;63859;51.064;4.580;2023-01-16T11:23:20;6.00;99.90
75262;DHT22;63859;51.064;4.580;2023-01-16T11:25:45;6.00;99.90
75262;DHT22;63859;51.064;4.580;2023-01-16T11:30:57;6.00;99.90
75262;DHT22;63859;51.064;4.580;2023-01-16T11:33:38;6.00;99.90
75262;DHT22;63859;51.064;4.580;2023-01-16T11:36:06;6.00;99.90
75262;DHT22;63859;51.064;4.580;2023-01-16T11:38:36;6.00;99.90
75262;DHT22;63859;51.064;4.580;2023-01-16T11:41:04;6.00;99.90
75262;DHT22;63859;51.064;4.580;2023-01-16T11:43:33;6.00;99.90
75262;DHT22;63859;51.064;4.580;2023-01-16T11:46:37;6.00;99.90
75262;DHT22;63859;51.064;4.580;2023-01-16T11:49:15;6.10;99.90
75262;DHT22;63859;51.064;4.580;2023-01-16T11:51:41;6.10;99.90
75262;DHT22;63859;51.064;4.580;2023-01-16T11:54:15;6.10;99.90
75262;DHT22;63859;51.064;4.580;2023-01-16T11:59:56;6.10;99.90
75262;DHT22;63859;51.064;4.580;2023-01-16T12:05:20;6.10;99.90
75262;DHT22;63859;51.064;4.580;2023-01-16T12:08:11;6.10;99.90
75262;DHT22;63859;51.064;4.580;2023-01-16T12:10:57;6.10;99.90
75262;DHT22;63859;51.064;4.580;2023-01-16T12:24:48;6.10;99.90
75262;DHT22;63859;51.064;4.580;2023-01-16T12:27:36;6.10;99.90
75262;DHT22;63859;51.064;4.580;2023-01-16T12:36:01;6.20;99.90
75262;DHT22;63859;51.064;4.580;2023-01-16T12:38:35;6.20;99.90
75262;DHT22;63859;51.064;4.580;2023-01-16T12:41:19;6.30;99.90
75262;DHT22;63859;51.064;4.580;2023-01-16T12:47:24;6.30;99.90
75262;DHT22;63859;51.064;4.580;2023-01-16T12:53:17;6.20;99.90
75262;DHT22;63859;51.064;4.580;2023-01-16T12:58:19;6.20;99.90
75262;DHT22;63859;51.064;4.580;2023-01-16T13:01:09;6.20;99.90
75262;DHT22;63859;51.064;4.580;2023-01-16T13:03:44;6.30;99.90
75262;DHT22;63859;51.064;4.580;2023-01-16T13:06:16;6.30;99.90
75262;DHT22;63859;51.064;4.580;2023-01-16T13:08:46;6.30;99.90
75262;DHT22;63859;51.064;4.580;2023-01-16T13:11:24;6.30;99.90
75262;DHT22;63859;51.064;4.580;2023-01-16T13:14:10;6.30;99.90
75262;DHT22;63859;51.064;4.580;2023-01-16T13:16:43;6.30;99.90
75262;DHT22;63859;51.064;4.580;2023-01-16T13:19:14;6.40;99.90
75262;DHT22;63859;51.064;4.580;2023-01-16T13:24:36;6.50;99.90
75262;DHT22;63859;51.064;4.580;2023-01-16T13:27:11;6.30;99.90
75262;DHT22;63859;51.064;4.580;2023-01-16T13:30:03;6.30;99.90
75262;DHT22;63859;51.064;4.580;2023-01-16T13:32:43;6.20;99.90
75262;DHT22;63859;51.064;4.580;2023-01-16T13:35:29;6.30;99.90
75262;DHT22;63859;51.064;4.580;2023-01-16T13:38:04;6.30;99.90
75262;DHT22;63859;51.064;4.580;2023-01-16T13:43:40;6.30;99.90
75262;DHT22;63859;51.064;4.580;2023-01-16T13:46:26;6.40;99.90
75262;DHT22;63859;51.064;4.580;2023-01-16T13:48:58;6.50;99.90
75262;DHT22;63859;51.064;4.580;2023-01-16T13:51:24;6.50;99.90
75262;DHT22;63859;51.064;4.580;2023-01-16T13:53:54;6.50;99.90
75262;DHT22;63859;51.064;4.580;2023-01-16T13:56:22;6.60;99.90
75262;DHT22;63859;51.064;4.580;2023-01-16T13:59:26;6.50;99.90
75262;DHT22;63859;51.064;4.580;2023-01-16T14:01:56;6.30;99.90
75262;DHT22;63859;51.064;4.580;2023-01-16T14:07:02;6.40;99.90
75262;DHT22;63859;51.064;4.580;2023-01-16T14:12:35;6.40;99.90
75262;DHT22;63859;51.064;4.580;2023-01-16T14:15:17;6.40;99.90
75262;DHT22;63859;51.064;4.580;2023-01-16T14:18:12;6.40;99.90
75262;DHT22;63859;51.064;4.580;2023-01-16T14:20:44;6.40;99.90
75262;DHT22;63859;51.064;4.580;2023-01-16T14:26:07;6.40;99.90
75262;DHT22;63859;51.064;4.580;2023-01-16T14:28:34;6.40;99.90
75262;DHT22;63859;51.064;4.580;2023-01-16T14:31:00;6.40;99.90
75262;DHT22;63859;51.064;4.580;2023-01-16T14:33:27;6.30;99.90
75262;DHT22;63859;51.064;4.580;2023-01-16T14:35:55;6.30;99.90
75262;DHT22;63859;51.064;4.580;2023-01-16T14:38:24;6.30;99.90
75262;DHT22;63859;51.064;4.580;2023-01-16T14:40:59;6.40;99.90
75262;DHT22;63859;51.064;4.580;2023-01-16T14:46:52;6.40;99.90
75262;DHT22;63859;51.064;4.580;2023-01-16T14:49:43;6.40;99.90
75262;DHT22;63859;51.064;4.580;2023-01-16T14:55:29;6.40;99.90
75262;DHT22;63859;51.064;4.580;2023-01-16T14:57:56;6.50;99.90
75262;DHT22;63859;51.064;4.580;2023-01-16T15:00:22;6.50;99.90
75262;DHT22;63859;51.064;4.580;2023-01-16T15:03:00;6.40;99.90
75262;DHT22;63859;51.064;4.580;2023-01-16T15:06:07;6.40;99.90
75262;DHT22;63859;51.064;4.580;2023-01-16T15:08:35;6.40;99.90
75262;DHT22;63859;51.064;4.580;2023-01-16T15:14:10;6.30;99.90
75262;DHT22;63859;51.064;4.580;2023-01-16T15:17:39;6.20;99.90
75262;DHT22;63859;51.064;4.580;2023-01-16T15:22:52;6.10;99.90
75262;DHT22;63859;51.064;4.580;2023-01-16T15:28:03;6.10;99.90
75262;DHT22;63859;51.064;4.580;2023-01-16T15:30:32;6.00;99.90
75262;DHT22;63859;51.064;4.580;2023-01-16T15:32:59;6.10;99.90
75262;DHT22;63859;51.064;4.580;2023-01-16T15:35:44;5.90;99.90
75262;DHT22;63859;51.064;4.580;2023-01-16T15:38:11;6.00;99.90
75262;DHT22;63859;51.064;4.580;2023-01-16T15:40:49;6.00;99.90
75262;DHT22;63859;51.064;4.580;2023-01-16T15:43:16;6.00;99.90
75262;DHT22;63859;51.064;4.580;2023-01-16T15:47:12;5.90;99.90
75262;DHT22;63859;51.064;4.580;2023-01-16T15:49:27;5.70;99.90
75262;DHT22;63859;51.064;4.580;2023-01-16T15:51:54;5.60;99.90
75262;DHT22;63859;51.064;4.580;2023-01-16T15:54:22;5.50;99.90
75262;DHT22;63859;51.064;4.580;2023-01-16T15:56:48;5.40;99.90
75262;DHT22;63859;51.064;4.580;2023-01-16T15:59:24;5.40;99.90
75262;DHT22;63859;51.064;4.580;2023-01-16T16:01:50;5.30;99.90
75262;DHT22;63859;51.064;4.580;2023-01-16T16:04:16;5.30;99.90
75262;DHT22;63859;51.064;4.580;2023-01-16T16:06:42;5.20;99.90
75262;DHT22;63859;51.064;4.580;2023-01-16T16:09:20;5.10;99.90
75262;DHT22;63859;51.064;4.580;2023-01-16T16:11:47;5.10;99.90
75262;DHT22;63859;51.064;4.580;2023-01-16T16:14:29;5.00;99.90
75262;DHT22;63859;51.064;4.580;2023-01-16T16:17:21;5.00;99.90
75262;DHT22;63859;51.064;4.580;2023-01-16T16:23:05;5.00;99.90
75262;DHT22;63859;51.064;4.580;2023-01-16T16:25:35;4.90;99.90
75262;DHT22;63859;51.064;4.580;2023-01-16T16:28:17;5.00;99.90
75262;DHT22;63859;51.064;4.580;2023-01-16T16:30:43;4.90;99.90
75262;DHT22;63859;51.064;4.580;2023-01-16T16:33:16;4.90;99.90
75262;DHT22;63859;51.064;4.580;2023-01-16T16:35:49;4.70;99.90
75262;DHT22;63859;51.064;4.580;2023-01-16T16:43:50;4.50;99.90
75262;DHT22;63859;51.064;4.580;2023-01-16T16:51:50;4.30;99.90
75262;DHT22;63859;51.064;4.580;2023-01-16T16:54:17;4.50;99.90
75262;DHT22;63859;51.064;4.580;2023-01-16T16:56:53;4.30;99.90
75262;DHT22;63859;51.064;4.580;2023-01-16T16:59:26;4.10;99.90
75262;DHT22;63859;51.064;4.580;2023-01-16T17:01:57;4.20;99.90
75262;DHT22;63859;51.064;4.580;2023-01-16T17:04:30;4.20;99.90
75262;DHT22;63859;51.064;4.580;2023-01-16T17:06:55;4.20;99.90
75262;DHT22;63859;51.064;4.580;2023-01-16T17:09:25;4.20;99.90
75262;DHT22;63859;51.064;4.580;2023-01-16T17:11:51;4.30;99.90
75262;DHT22;63859;51.064;4.580;2023-01-16T17:14:16;4.40;99.90
75262;DHT22;63859;51.064;4.580;2023-01-16T17:16:42;4.40;99.90
75262;DHT22;63859;51.064;4.580;2023-01-16T17:19:18;4.40;99.90
75262;DHT22;63859;51.064;4.580;2023-01-16T17:21:44;4.50;99.90
75262;DHT22;63859;51.064;4.580;2023-01-16T17:24:20;4.40;99.90
75262;DHT22;63859;51.064;4.580;2023-01-16T17:26:46;4.40;99.90
75262;DHT22;63859;51.064;4.580;2023-01-16T17:29:11;4.60;99.90
75262;DHT22;63859;51.064;4.580;2023-01-16T17:31:39;4.60;99.90
75262;DHT22;63859;51.064;4.580;2023-01-16T17:34:12;4.60;99.90
75262;DHT22;63859;51.064;4.580;2023-01-16T17:36:39;4.70;99.90
75262;DHT22;63859;51.064;4.580;2023-01-16T17:39:05;4.60;99.90
75262;DHT22;63859;51.064;4.580;2023-01-16T17:41:34;4.60;99.90
75262;DHT22;63859;51.064;4.580;2023-01-16T17:44:24;4.60;99.90
75262;DHT22;63859;51.064;4.580;2023-01-16T17:47:10;4.60;99.90
75262;DHT22;63859;51.064;4.580;2023-01-16T17:49:36;4.60;99.90
75262;DHT22;63859;51.064;4.580;2023-01-16T17:52:20;4.60;99.90
75262;DHT22;63859;51.064;4.580;2023-01-16T17:54:46;4.60;99.90
75262;DHT22;63859;51.064;4.580;2023-01-16T17:57:30;4.60;99.90
75262;DHT22;63859;51.064;4.580;2023-01-16T17:59:57;4.70;99.90
75262;DHT22;63859;51.064;4.580;2023-01-16T18:02:23;4.70;99.90
75262;DHT22;63859;51.064;4.580;2023-01-16T18:04:48;4.70;99.90
75262;DHT22;63859;51.064;4.580;2023-01-16T18:07:16;4.70;99.90
75262;DHT22;63859;51.064;4.580;2023-01-16T18:09:41;4.70;99.90
75262;DHT22;63859;51.064;4.580;2023-01-16T18:12:08;4.70;99.90
75262;DHT22;63859;51.064;4.580;2023-01-16T18:14:52;4.70;99.90
75262;DHT22;63859;51.064;4.580;2023-01-16T18:17:37;4.70;99.90